Time;durP1;ratioP1;P1;durP2;ratioP2;P2;SDS_P1;SDS_P2;PMS_P1;PMS_P2;Temp;Humidity;BMP_temperature;BMP_pressure;BME280_temperature;BME280_humidity;BME280_pressure;Samples;Min_cycle;Max_cycle;Signal;HPM_P1;HPM_P2
2023/04/20 00:01:26;;;;;;;5.10;3.17;;;;;;;4.85;47.43;102161.91;5113095;28;20038;-56
2023/04/20 00:03:51;;;;;;;7.55;3.75;;;;;;;4.88;46.58;102157.03;5113500;28;20019;-56
2023/04/20 00:06:16;;;;;;;6.80;3.40;;;;;;;4.99;46.56;102154.38;5112781;28;20359;-56
2023/04/20 00:08:42;;;;;;;7.80;3.90;;;;;;;4.91;48.15;102152.16;5113156;28;20095;-56
2023/04/20 00:11:08;;;;;;;6.25;3.55;;;;;;;4.89;47.93;102153.72;5113226;28;20423;-56
2023/04/20 00:13:33;;;;;;;7.25;3.38;;;;;;;5.00;46.36;102146.81;5112560;28;20549;-56
2023/04/20 00:15:59;;;;;;;7.53;3.78;;;;;;;5.05;45.64;102130.16;5113347;28;20494;-56
2023/04/20 00:18:24;;;;;;;6.13;3.47;;;;;;;4.93;47.50;102134.38;5112498;28;20016;-56
2023/04/20 00:20:49;;;;;;;7.97;3.45;;;;;;;4.99;46.07;102133.94;5113504;28;20404;-56
2023/04/20 00:23:15;;;;;;;7.10;3.50;;;;;;;4.92;46.69;102125.81;5112714;28;20039;-55
2023/04/20 00:25:40;;;;;;;6.40;3.40;;;;;;;4.84;48.00;102119.28;5111949;28;20026;-55
2023/04/20 00:28:05;;;;;;;9.65;3.80;;;;;;;4.85;47.50;102121.03;5111589;28;20027;-57
2023/04/20 00:30:31;;;;;;;7.40;3.80;;;;;;;4.81;46.79;102107.94;5112633;28;20031;-57
2023/04/20 00:32:56;;;;;;;7.47;3.22;;;;;;;4.78;46.73;102116.28;5112622;28;20023;-56
2023/04/20 00:35:21;;;;;;;9.93;3.88;;;;;;;4.74;47.88;102106.59;5113106;28;20030;-57
2023/04/20 00:37:47;;;;;;;8.10;3.55;;;;;;;4.65;48.97;102105.91;5112455;28;20375;-57
2023/04/20 00:40:12;;;;;;;7.78;3.50;;;;;;;4.64;48.33;102109.25;5112421;28;20119;-57
2023/04/20 00:42:39;;;;;;;7.13;3.40;;;;;;;4.54;49.10;102103.44;5112283;28;20020;-55
2023/04/20 00:45:05;;;;;;;6.45;4.05;;;;;;;4.56;48.86;102099.34;5112725;28;20023;-57
2023/04/20 00:47:30;;;;;;;6.35;3.92;;;;;;;4.50;49.42;102104.00;5111965;28;20027;-55
2023/04/20 00:49:56;;;;;;;7.43;3.72;;;;;;;4.50;49.14;102095.47;5113111;28;20032;-57
2023/04/20 00:52:21;;;;;;;6.75;3.50;;;;;;;4.47;49.42;102085.91;5112214;28;20030;-56
2023/04/20 00:54:47;;;;;;;9.13;3.80;;;;;;;4.48;49.50;102076.56;5112353;28;20091;-56
2023/04/20 00:57:13;;;;;;;6.35;3.75;;;;;;;4.50;49.01;102080.16;5113212;28;20099;-57
2023/04/20 00:59:39;;;;;;;6.70;3.20;;;;;;;4.49;49.37;102069.03;5112593;28;20115;-57
2023/04/20 01:02:05;;;;;;;6.63;3.45;;;;;;;4.51;49.21;102064.06;5111333;28;20071;-56
2023/04/20 01:04:30;;;;;;;6.05;3.40;;;;;;;4.45;49.67;102056.81;5111917;28;20059;-57
2023/04/20 01:06:56;;;;;;;6.90;3.35;;;;;;;4.43;49.83;102059.25;5112226;28;20471;-56
2023/04/20 01:09:21;;;;;;;6.45;3.42;;;;;;;4.43;49.82;102058.38;5111655;28;20553;-56
2023/04/20 01:11:47;;;;;;;5.88;3.50;;;;;;;4.40;50.45;102053.94;5112759;28;20076;-56
2023/04/20 01:14:12;;;;;;;6.35;3.65;;;;;;;4.39;50.28;102043.59;5112448;28;20090;-56
2023/04/20 01:16:37;;;;;;;6.00;3.53;;;;;;;4.32;51.06;102041.38;5111891;28;20023;-56
2023/04/20 01:19:03;;;;;;;5.95;3.72;;;;;;;4.31;50.86;102043.03;5113025;28;20048;-56
2023/04/20 01:21:28;;;;;;;8.75;3.47;;;;;;;4.29;50.43;102040.38;5112122;28;20065;-57
2023/04/20 01:23:53;;;;;;;7.70;3.83;;;;;;;4.27;50.18;102029.16;5112149;28;20451;-56
2023/04/20 01:26:21;;;;;;;9.07;3.80;;;;;;;4.18;51.12;102030.13;5112544;28;20068;-57
2023/04/20 01:28:46;;;;;;;;;;;;;;;4.26;50.38;102032.50;5112445;28;20032;-56
2023/04/20 01:31:12;;;;;;;5.27;3.40;;;;;;;4.14;51.75;102021.34;5112863;28;19918;-57
2023/04/20 01:33:39;;;;;;;13.93;4.30;;;;;;;4.10;52.16;102016.81;5112689;28;20273;-56
2023/04/20 01:36:06;;;;;;;5.53;3.40;;;;;;;3.99;53.62;102013.47;5112018;28;20035;-56
2023/04/20 01:38:33;;;;;;;7.13;4.03;;;;;;;4.02;52.38;102017.91;5112266;28;20031;-57
2023/04/20 01:41:00;;;;;;;6.65;3.58;;;;;;;4.00;52.55;102012.66;5116074;28;20031;-56
2023/04/20 01:43:25;;;;;;;6.60;3.78;;;;;;;3.98;53.00;102004.03;5115408;28;20085;-57
2023/04/20 01:45:51;;;;;;;7.22;3.53;;;;;;;3.87;55.60;102003.22;5116341;28;20031;-56
2023/04/20 01:48:16;;;;;;;6.25;3.63;;;;;;;3.86;54.87;101998.00;5116041;28;20085;-56
2023/04/20 01:50:41;;;;;;;7.88;3.60;;;;;;;3.79;55.25;102000.06;5115468;28;20031;-57
2023/04/20 01:53:07;;;;;;;7.13;3.95;;;;;;;3.72;56.15;101989.28;5115279;28;20027;-55
2023/04/20 01:55:33;;;;;;;6.38;3.30;;;;;;;3.67;55.50;101988.06;5115785;28;20097;-57
2023/04/20 01:57:58;;;;;;;6.20;3.38;;;;;;;3.65;55.15;101992.16;5115079;28;20467;-56
2023/04/20 02:00:23;;;;;;;8.07;3.75;;;;;;;3.58;56.10;101985.72;5115845;28;20031;-55
2023/04/20 02:02:49;;;;;;;7.47;3.80;;;;;;;3.53;56.85;101989.59;5115679;28;20047;-55
2023/04/20 02:05:14;;;;;;;6.05;3.30;;;;;;;3.45;56.86;101991.53;5114995;28;20107;-56
2023/04/20 02:07:40;;;;;;;6.57;3.55;;;;;;;3.38;57.87;101974.00;5115177;28;20035;-55
2023/04/20 02:10:05;;;;;;;7.22;3.78;;;;;;;3.32;59.17;101978.59;5115277;28;20051;-56
2023/04/20 02:12:31;;;;;;;7.32;3.33;;;;;;;3.24;59.29;101971.28;5114707;28;20088;-57
2023/04/20 02:14:56;;;;;;;6.82;4.10;;;;;;;3.23;59.24;101964.41;5115703;28;20420;-57
2023/04/20 02:17:21;;;;;;;6.60;3.60;;;;;;;3.20;59.78;101964.19;5114353;28;20455;-57
2023/04/20 02:19:46;;;;;;;9.05;4.07;;;;;;;3.19;60.73;101966.56;5114827;28;20035;-57
2023/04/20 02:22:12;;;;;;;10.10;4.15;;;;;;;3.16;61.50;101959.59;5115254;28;20024;-55
2023/04/20 02:24:37;;;;;;;7.35;4.00;;;;;;;3.21;60.81;101953.19;5114954;28;20023;-57
2023/04/20 02:27:03;;;;;;;8.73;3.67;;;;;;;3.26;61.23;101951.88;5114752;28;20012;-57
2023/04/20 02:29:28;;;;;;;7.05;4.00;;;;;;;3.28;61.13;101952.03;5115245;28;20035;-57
2023/04/20 02:31:54;;;;;;;6.72;4.20;;;;;;;3.24;62.61;101950.91;5114654;28;20027;-56
2023/04/20 02:34:19;;;;;;;8.48;4.30;;;;;;;3.24;62.53;101945.81;5115064;28;20033;-57
2023/04/20 02:36:45;;;;;;;10.32;4.40;;;;;;;3.22;63.88;101947.31;5114980;28;20024;-56
2023/04/20 02:39:10;;;;;;;7.80;3.95;;;;;;;3.41;62.23;101938.56;5114284;28;20115;-57
2023/04/20 02:41:35;;;;;;;7.35;4.13;;;;;;;3.49;62.30;101937.47;5114930;28;20036;-57
2023/04/20 02:44:00;;;;;;;8.20;3.95;;;;;;;3.48;62.83;101932.28;5115220;28;20039;-57
2023/04/20 02:46:26;;;;;;;6.40;4.40;;;;;;;3.44;63.57;101934.56;5114055;28;20501;-56
2023/04/20 02:48:51;;;;;;;9.07;4.15;;;;;;;3.46;63.03;101934.72;5115094;28;20032;-57
2023/04/20 02:51:16;;;;;;;8.60;4.30;;;;;;;3.41;64.80;101928.38;5114144;28;20027;-56
2023/04/20 02:53:42;;;;;;;7.20;4.30;;;;;;;3.39;64.72;101927.34;5113431;28;20028;-57
2023/04/20 02:56:07;;;;;;;7.45;4.07;;;;;;;3.39;64.90;101922.25;5114809;28;20023;-57
2023/04/20 02:58:32;;;;;;;8.38;4.78;;;;;;;3.33;65.67;101924.34;5114434;28;20020;-56
2023/04/20 03:00:59;;;;;;;7.78;4.13;;;;;;;3.36;65.75;101934.78;5114167;28;20034;-57
2023/04/20 03:03:26;;;;;;;6.18;4.28;;;;;;;3.40;66.09;101924.03;5114309;28;20089;-57
2023/04/20 03:05:51;;;;;;;8.35;4.18;;;;;;;3.37;67.03;101921.25;5114734;28;20027;-57
2023/04/20 03:08:16;;;;;;;7.10;4.53;;;;;;;3.43;66.61;101921.72;5113160;28;20531;-56
2023/04/20 03:10:41;;;;;;;9.77;4.70;;;;;;;3.39;67.88;101918.03;5114598;28;20028;-57
2023/04/20 03:13:07;;;;;;;10.05;4.50;;;;;;;3.40;68.53;101918.94;5114513;28;20464;-57
2023/04/20 03:15:32;;;;;;;6.80;4.40;;;;;;;3.44;69.45;101919.28;5113767;28;20020;-56
2023/04/20 03:17:57;;;;;;;8.32;4.47;;;;;;;3.55;68.41;101912.47;5114371;28;20024;-57
2023/04/20 03:20:23;;;;;;;10.70;5.13;;;;;;;3.58;70.55;101907.56;5113794;28;20049;-56
2023/04/20 03:22:48;;;;;;;6.78;4.38;;;;;;;3.69;69.15;101900.72;5113430;28;20531;-57
2023/04/20 03:25:13;;;;;;;6.85;4.50;;;;;;;3.75;69.40;101895.22;5114074;28;20035;-57
2023/04/20 03:27:38;;;;;;;8.57;4.97;;;;;;;3.83;70.20;101900.88;5113003;28;20031;-56
2023/04/20 03:30:05;;;;;;;7.80;4.38;;;;;;;3.85;71.15;101902.75;5113723;28;20110;-55
2023/04/20 03:32:31;;;;;;;6.97;4.13;;;;;;;3.94;69.35;101905.97;5113961;28;20111;-57
2023/04/20 03:34:56;;;;;;;6.93;4.30;;;;;;;4.04;68.92;101899.91;5113977;28;20102;-57
2023/04/20 03:37:21;;;;;;;8.13;4.78;;;;;;;4.11;69.98;101893.59;5112815;28;20049;-56
2023/04/20 03:39:46;;;;;;;8.70;4.40;;;;;;;4.18;70.63;101888.13;5113970;28;20023;-57
2023/04/20 03:42:12;;;;;;;9.55;4.28;;;;;;;4.24;69.48;101885.16;5113292;28;20051;-57
2023/04/20 03:44:37;;;;;;;7.20;4.43;;;;;;;4.31;69.33;101878.81;5113617;28;20390;-56
2023/04/20 03:47:02;;;;;;;10.15;4.72;;;;;;;4.36;68.54;101875.78;5114009;28;20111;-56
2023/04/20 03:49:28;;;;;;;8.23;4.68;;;;;;;4.38;70.26;101886.16;5112934;28;20055;-57
2023/04/20 03:51:53;;;;;;;7.95;4.63;;;;;;;4.41;70.46;101881.25;5113431;28;20356;-57
2023/04/20 03:54:19;;;;;;;7.72;5.07;;;;;;;4.47;69.65;101879.13;5113044;28;20466;-57
2023/04/20 03:56:44;;;;;;;6.85;4.85;;;;;;;4.49;70.48;101869.91;5113007;28;20027;-57
2023/04/20 03:59:10;;;;;;;6.72;4.40;;;;;;;4.55;69.91;101875.44;5113832;28;20068;-56
2023/04/20 04:01:39;;;;;;;10.45;4.65;;;;;;;4.59;69.81;101874.88;5112793;28;20073;-57
2023/04/20 04:04:04;;;;;;;10.13;4.97;;;;;;;4.63;69.70;101877.66;5112760;28;20023;-57
2023/04/20 04:06:30;;;;;;;8.20;4.43;;;;;;;4.67;70.15;101869.44;5113181;28;20498;-56
2023/04/20 04:08:56;;;;;;;7.63;4.60;;;;;;;4.69;70.60;101863.66;5113255;28;20020;-57
2023/04/20 04:11:21;;;;;;;8.77;4.88;;;;;;;4.72;71.02;101862.97;5112338;28;20031;-57
2023/04/20 04:13:46;;;;;;;8.00;4.93;;;;;;;4.75;71.73;101858.06;5113663;28;20030;-57
2023/04/20 04:16:12;;;;;;;9.73;4.50;;;;;;;4.81;71.01;101860.19;5113149;28;20024;-56
2023/04/20 04:18:42;;;;;;;8.73;4.70;;;;;;;4.87;71.26;101863.16;5112767;28;20031;-57
2023/04/20 04:21:09;;;;;;;9.77;4.90;;;;;;;4.89;71.38;101856.47;5113647;28;20028;-57
2023/04/20 04:23:34;;;;;;;8.45;4.55;;;;;;;4.96;70.89;101853.59;5112338;28;20047;-56
2023/04/20 04:26:00;;;;;;;9.95;4.80;;;;;;;5.01;71.09;101848.75;5112902;28;20077;-56
2023/04/20 04:28:25;;;;;;;8.25;4.85;;;;;;;5.03;71.60;101849.78;5113090;28;20450;-57
2023/04/20 04:30:51;;;;;;;8.45;5.28;;;;;;;5.09;71.61;101829.75;5113167;28;20498;-57
2023/04/20 04:33:17;;;;;;;8.10;4.88;;;;;;;5.14;71.81;101830.03;5112487;28;20035;-57
2023/04/20 04:35:44;;;;;;;8.50;4.50;;;;;;;5.18;71.29;101819.28;5113357;28;20099;-55
2023/04/20 04:38:11;;;;;;;7.30;4.60;;;;;;;5.23;71.35;101825.56;5112727;28;20452;-57
2023/04/20 04:40:38;;;;;;;6.97;4.55;;;;;;;5.26;71.82;101821.53;5112506;28;20023;-57
2023/04/20 04:43:03;;;;;;;8.00;5.20;;;;;;;5.31;71.94;101810.72;5113288;28;20024;-57
2023/04/20 04:45:29;;;;;;;7.90;4.75;;;;;;;5.36;71.56;101809.34;5112195;28;20027;-56
2023/04/20 04:47:55;;;;;;;9.15;4.55;;;;;;;5.37;72.32;101814.59;5113170;28;20045;-57
2023/04/20 04:50:21;;;;;;;9.45;5.63;;;;;;;5.41;72.23;101805.44;5112845;28;20027;-57
2023/04/20 04:52:46;;;;;;;9.77;4.97;;;;;;;5.51;71.66;101815.47;5111838;28;20027;-56
2023/04/20 04:55:11;;;;;;;6.00;4.40;;;;;;;5.54;72.16;101808.03;5112935;28;20028;-57
2023/04/20 04:57:37;;;;;;;8.77;5.15;;;;;;;5.59;71.74;101809.22;5112613;28;20126;-57
2023/04/20 05:00:07;;;;;;;9.27;5.07;;;;;;;5.67;71.21;101803.69;5112324;28;20090;-57
2023/04/20 05:02:32;;;;;;;9.32;4.97;;;;;;;5.75;70.42;101805.09;5112434;28;20035;-56
2023/04/20 05:04:57;;;;;;;8.02;4.93;;;;;;;5.80;70.44;101807.94;5112664;28;20051;-56
2023/04/20 05:07:23;;;;;;;11.35;4.97;;;;;;;5.83;70.45;101810.72;5111457;28;20072;-57
2023/04/20 05:09:49;;;;;;;8.02;5.22;;;;;;;5.86;69.65;101808.34;5112546;28;20099;-57
2023/04/20 05:12:14;;;;;;;10.60;5.65;;;;;;;5.86;70.92;101801.56;5112995;28;20486;-56
2023/04/20 05:14:39;;;;;;;9.13;5.05;;;;;;;5.86;70.69;101799.00;5114939;28;20107;-56
2023/04/20 05:17:05;;;;;;;9.07;5.43;;;;;;;5.88;71.38;101801.66;5116858;28;20085;-56
2023/04/20 05:19:30;;;;;;;8.02;4.93;;;;;;;5.90;70.94;101798.41;5116352;28;20027;-56
2023/04/20 05:21:55;;;;;;;9.73;5.30;;;;;;;5.92;71.78;101804.50;5115744;28;20054;-56
2023/04/20 05:24:21;;;;;;;9.52;5.13;;;;;;;5.93;71.56;101797.72;5115984;28;20165;-56
2023/04/20 05:26:46;;;;;;;8.38;5.20;;;;;;;5.93;71.57;101796.03;5116493;28;20035;-57
2023/04/20 05:29:11;;;;;;;7.88;4.90;;;;;;;5.93;72.50;101796.03;5116138;28;20020;-56
2023/04/20 05:31:37;;;;;;;9.63;5.57;;;;;;;5.96;72.17;101794.47;5116280;28;20339;-56
2023/04/20 05:34:02;;;;;;;7.32;4.70;;;;;;;5.99;71.59;101797.25;5116239;28;20023;-56
2023/04/20 05:36:28;;;;;;;9.73;5.45;;;;;;;6.01;70.47;101799.13;5115076;28;20062;-57
2023/04/20 05:38:54;;;;;;;10.60;5.20;;;;;;;6.02;71.31;101789.78;5115965;28;20462;-56
2023/04/20 05:41:25;;;;;;;8.38;5.35;;;;;;;6.04;71.47;101798.41;5115925;28;20051;-56
2023/04/20 05:43:50;;;;;;;10.23;5.70;;;;;;;6.05;72.23;101795.94;5115409;28;20027;-56
2023/04/20 05:46:15;;;;;;;9.32;5.13;;;;;;;6.09;71.73;101786.81;5115916;28;20024;-56
2023/04/20 05:48:41;;;;;;;6.90;5.03;;;;;;;6.12;71.93;101788.66;5115843;28;20092;-57
2023/04/20 05:51:06;;;;;;;9.95;5.70;;;;;;;6.12;71.90;101787.00;5115473;28;20038;-56
2023/04/20 05:53:31;;;;;;;11.02;5.95;;;;;;;6.15;71.05;101782.06;5115619;28;20455;-56
2023/04/20 05:55:56;;;;;;;8.70;5.78;;;;;;;6.17;72.01;101785.63;5115318;28;20039;-56
2023/04/20 05:58:22;;;;;;;10.75;6.20;;;;;;;6.20;72.61;101788.38;5115869;28;20543;-56
2023/04/20 06:00:47;;;;;;;10.38;5.85;;;;;;;6.25;71.35;101781.84;5115918;28;20098;-56
2023/04/20 06:03:12;;;;;;;10.00;6.20;;;;;;;6.29;71.43;101782.03;5115116;28;20043;-57
2023/04/20 06:05:38;;;;;;;9.27;5.50;;;;;;;6.33;70.67;101781.47;5115394;28;20028;-56
2023/04/20 06:08:03;;;;;;;8.88;5.50;;;;;;;6.40;72.22;101779.38;5115038;28;20425;-56
2023/04/20 06:10:31;;;;;;;9.57;5.68;;;;;;;6.55;71.43;101775.97;5114849;28;20028;-56
2023/04/20 06:12:56;;;;;;;10.55;5.35;;;;;;;6.70;71.27;101781.13;5115611;28;20466;-57
2023/04/20 06:15:22;;;;;;;9.07;5.75;;;;;;;6.84;70.82;101782.88;5115533;28;20050;-56
2023/04/20 06:17:47;;;;;;;9.68;5.70;;;;;;;6.91;69.95;101777.28;5114945;28;20047;-56
2023/04/20 06:20:12;;;;;;;9.07;5.35;;;;;;;7.03;69.36;101776.25;5115615;28;20028;-56
2023/04/20 06:22:45;;;;;;;9.75;5.45;;;;;;;7.06;69.09;101781.53;5114595;28;20066;-56
2023/04/20 06:25:12;;;;;;;9.02;5.60;;;;;;;7.10;68.70;101786.06;5114140;28;20040;-56
2023/04/20 06:27:38;;;;;;;8.50;5.80;;;;;;;7.15;68.95;101776.94;5115293;28;20027;-56
2023/04/20 06:30:04;;;;;;;10.82;6.03;;;;;;;7.13;68.33;101777.66;5115151;28;20015;-56
2023/04/20 06:32:30;;;;;;;10.68;5.90;;;;;;;7.10;68.74;101775.81;5114399;28;20024;-57
2023/04/20 06:34:55;;;;;;;11.40;5.85;;;;;;;7.10;69.60;101765.53;5115218;28;20024;-56
2023/04/20 06:37:20;;;;;;;10.38;5.80;;;;;;;7.12;69.52;101757.97;5114475;28;20360;-56
2023/04/20 06:39:45;;;;;;;12.23;5.50;;;;;;;7.08;69.41;101767.16;5114536;28;20363;-56
2023/04/20 06:42:11;;;;;;;9.38;6.07;;;;;;;7.13;69.57;101762.28;5115127;28;20077;-56
2023/04/20 06:44:36;;;;;;;10.43;5.53;;;;;;;7.17;69.49;101762.56;5114496;28;20050;-56
2023/04/20 06:47:01;;;;;;;9.43;5.85;;;;;;;7.24;70.07;101763.78;5114601;28;20019;-57
2023/04/20 06:49:27;;;;;;;8.73;5.55;;;;;;;7.29;71.17;101762.38;5114531;28;20039;-57
2023/04/20 06:51:52;;;;;;;9.15;6.40;;;;;;;7.19;70.25;101766.09;5114558;28;20352;-56
2023/04/20 06:54:17;;;;;;;14.57;6.90;;;;;;;7.14;69.86;101767.53;5114121;28;20536;-56
2023/04/20 06:56:42;;;;;;;9.48;6.18;;;;;;;7.14;70.02;101764.97;5115023;28;20074;-56
2023/04/20 06:59:08;;;;;;;11.45;6.70;;;;;;;7.15;67.49;101753.88;5114218;28;20028;-56
2023/04/20 07:01:33;;;;;;;12.85;6.20;;;;;;;7.20;68.72;101757.59;5114199;28;20031;-57
2023/04/20 07:03:58;;;;;;;9.90;6.03;;;;;;;7.22;68.45;101758.59;5113886;28;20355;-56
2023/04/20 07:06:24;;;;;;;10.57;5.82;;;;;;;7.31;67.28;101765.03;5112607;28;20058;-56
2023/04/20 07:08:49;;;;;;;9.00;6.47;;;;;;;7.36;68.60;101754.25;5114290;28;20023;-56
2023/04/20 07:11:15;;;;;;;10.80;6.50;;;;;;;7.40;68.36;101755.31;5113848;28;20031;-56
2023/04/20 07:13:40;;;;;;;10.50;6.20;;;;;;;7.39;69.32;101758.69;5112796;28;20412;-56
2023/04/20 07:16:06;;;;;;;10.45;6.00;;;;;;;7.30;67.85;101766.72;5113716;28;20035;-55
2023/04/20 07:18:31;;;;;;;9.50;6.25;;;;;;;7.22;68.35;101766.28;5113008;28;20059;-54
2023/04/20 07:20:56;;;;;;;7.75;5.40;;;;;;;7.15;68.32;101769.25;5112824;28;20023;-56
2023/04/20 07:23:21;;;;;;;9.68;5.88;;;;;;;7.03;69.20;101759.19;5112597;28;20038;-56
2023/04/20 07:25:47;;;;;;;10.25;5.88;;;;;;;6.92;69.01;101766.25;5113144;28;20558;-57
2023/04/20 07:28:12;;;;;;;8.25;5.28;;;;;;;6.86;69.20;101768.44;5112634;28;20019;-56
2023/04/20 07:30:37;;;;;;;8.13;6.18;;;;;;;6.85;69.75;101765.78;5113099;28;20032;-56
2023/04/20 07:33:03;;;;;;;9.25;5.72;;;;;;;6.87;69.36;101765.09;5112662;28;20111;-54
2023/04/20 07:35:28;;;;;;;8.05;5.65;;;;;;;6.89;70.45;101762.63;5112443;28;20023;-55
2023/04/20 07:37:53;;;;;;;7.80;4.97;;;;;;;6.98;69.75;101764.84;5113661;28;20478;-55
2023/04/20 07:40:19;;;;;;;6.45;4.78;;;;;;;7.16;69.17;101760.78;5112541;28;20024;-55
2023/04/20 07:42:44;;;;;;;8.57;5.70;;;;;;;7.35;69.04;101762.75;5112560;28;20027;-54
2023/04/20 07:45:11;;;;;;;10.10;5.50;;;;;;;7.53;69.82;101759.47;5113904;28;20024;-54
2023/04/20 07:47:37;;;;;;;9.13;5.20;;;;;;;7.71;70.01;101759.63;5112739;28;20467;-54
2023/04/20 07:50:03;;;;;;;10.15;5.75;;;;;;;7.68;67.28;101751.72;5113244;28;20127;-53
2023/04/20 07:52:29;;;;;;;7.90;4.78;;;;;;;7.73;68.98;101752.88;5112586;28;20718;-56
2023/04/20 07:54:58;;;;;;;7.70;5.20;;;;;;;7.75;69.48;101748.72;5112932;28;20455;-56
2023/04/20 07:57:24;;;;;;;8.65;5.50;;;;;;;7.74;69.31;101763.22;5111623;28;20111;-56
2023/04/20 07:59:50;;;;;;;11.60;5.97;;;;;;;7.69;67.63;101761.19;5113662;28;20038;-56
2023/04/20 08:02:16;;;;;;;7.32;4.85;;;;;;;7.72;67.88;101757.13;5112402;28;20040;-56
2023/04/20 08:04:43;;;;;;;11.35;5.18;;;;;;;7.71;67.80;101755.34;5112771;28;20483;-56
2023/04/20 08:07:09;;;;;;;;;;;;;;;7.85;67.84;101748.44;5114110;28;20044;-56
2023/04/20 08:09:35;;;;;;;9.00;5.50;;;;;;;7.71;67.36;101749.34;5112570;28;20022;-56
2023/04/20 08:12:00;;;;;;;7.32;5.03;;;;;;;7.85;67.77;101751.00;5113711;28;20047;-56
2023/04/20 08:14:26;;;;;;;6.10;4.50;;;;;;;7.87;68.42;101751.94;5113300;28;20344;-56
2023/04/20 08:16:51;;;;;;;10.32;5.28;;;;;;;7.91;68.87;101751.34;5112476;28;20042;-56
2023/04/20 08:19:16;;;;;;;8.63;5.03;;;;;;;7.88;68.43;101751.16;5113035;28;20019;-56
2023/04/20 08:21:42;;;;;;;7.10;5.10;;;;;;;7.82;67.99;101750.81;5113482;28;20429;-56
2023/04/20 08:24:08;;;;;;;8.75;4.78;;;;;;;7.83;68.11;101747.44;5112491;28;20065;-56
2023/04/20 08:26:34;;;;;;;9.98;5.35;;;;;;;8.05;68.61;101738.38;5113196;28;20019;-55
2023/04/20 08:29:00;;;;;;;10.43;4.63;;;;;;;8.11;68.92;101738.69;5113346;28;20032;-56
2023/04/20 08:31:26;;;;;;;7.70;4.50;;;;;;;8.16;67.97;101742.41;5112373;28;20448;-56
2023/04/20 08:33:51;;;;;;;6.35;4.35;;;;;;;8.18;67.91;101740.78;5113155;28;20472;-56
2023/04/20 08:36:17;;;;;;;9.02;4.65;;;;;;;8.22;69.59;101729.91;5112758;28;20024;-56
2023/04/20 08:38:42;;;;;;;7.05;4.32;;;;;;;8.43;68.14;101734.41;5112586;28;20024;-56
2023/04/20 08:41:10;;;;;;;6.60;4.05;;;;;;;8.63;66.32;101724.31;5113254;28;20020;-56
2023/04/20 08:43:35;;;;;;;7.28;4.20;;;;;;;8.60;66.47;101721.56;5112698;28;20024;-56
2023/04/20 08:46:03;;;;;;;5.38;4.30;;;;;;;8.56;66.29;101720.56;5112317;28;20031;-56
2023/04/20 08:48:35;;;;;;;6.45;4.00;;;;;;;8.82;68.28;101719.31;5114052;28;20031;-55
2023/04/20 08:51:03;;;;;;;5.78;3.90;;;;;;;8.86;65.75;101723.78;5117140;28;20024;-56
2023/04/20 08:53:30;;;;;;;6.00;4.00;;;;;;;9.08;65.19;101719.72;5116437;28;20016;-56
2023/04/20 08:55:56;;;;;;;4.85;3.70;;;;;;;9.10;64.32;101712.94;5117095;28;20378;-56
2023/04/20 08:58:23;;;;;;;5.32;3.70;;;;;;;9.26;65.11;101718.84;5116630;28;20026;-55
2023/04/20 09:00:49;;;;;;;5.60;3.65;;;;;;;9.33;63.82;101711.50;5116464;28;20031;-56
2023/04/20 09:03:14;;;;;;;7.32;4.00;;;;;;;9.01;64.06;101708.25;5116982;28;20485;-56
2023/04/20 09:05:40;;;;;;;5.15;3.90;;;;;;;8.77;65.43;101714.75;5116560;28;20094;-56
2023/04/20 09:08:07;;;;;;;6.88;4.18;;;;;;;8.72;66.92;101709.34;5116588;28;20023;-56
2023/04/20 09:10:43;;;;;;;5.90;4.03;;;;;;;8.81;66.91;101714.97;5116665;28;20023;-56
2023/04/20 09:13:20;;;;;;;7.90;4.03;;;;;;;8.87;65.83;101705.00;5115942;28;20489;-56
2023/04/20 09:15:45;;;;;;;7.13;4.20;;;;;;;8.92;66.32;101706.91;5117214;28;20019;-56
2023/04/20 09:18:13;;;;;;;5.35;3.78;;;;;;;9.05;64.82;101711.84;5116660;28;20035;-56
2023/04/20 09:20:39;;;;;;;6.32;3.88;;;;;;;9.27;63.46;101706.09;5115843;28;20501;-56
2023/04/20 09:23:17;;;;;;;8.00;4.18;;;;;;;9.42;63.26;101708.50;5116777;28;20016;-56
2023/04/20 09:25:48;;;;;;;6.90;3.95;;;;;;;9.61;61.29;101706.84;5116258;28;20032;-55
2023/04/20 09:28:15;;;;;;;6.65;3.72;;;;;;;9.46;61.00;101704.41;5116282;28;20038;-55
2023/04/20 09:30:50;;;;;;;6.50;3.67;;;;;;;9.49;62.99;101710.56;5116976;28;20145;-56
2023/04/20 09:33:15;;;;;;;6.97;3.88;;;;;;;9.81;61.96;101697.44;5116038;28;20016;-56
2023/04/20 09:35:42;;;;;;;5.55;3.83;;;;;;;9.80;59.11;101704.31;5116029;28;20020;-56
2023/04/20 09:38:09;;;;;;;8.02;3.78;;;;;;;10.16;60.78;101693.91;5116256;28;20031;-56
2023/04/20 09:40:35;;;;;;;6.32;4.07;;;;;;;10.22;59.41;101698.44;5115958;28;20551;-56
2023/04/20 09:43:18;;;;;;;5.72;3.55;;;;;;;10.20;59.87;101695.81;5115894;28;20058;-56
2023/04/20 09:45:44;;;;;;;7.38;3.85;;;;;;;10.09;59.15;101689.28;5116319;28;20092;-55
2023/04/20 09:48:10;;;;;;;6.75;4.38;;;;;;;9.80;59.67;101699.16;5115475;28;20091;-56
2023/04/20 09:50:37;;;;;;;7.35;3.95;;;;;;;9.64;59.13;101697.53;5115742;28;20498;-56
2023/04/20 09:53:03;;;;;;;7.28;3.42;;;;;;;9.39;59.28;101701.53;5115988;28;20023;-56
2023/04/20 09:55:30;;;;;;;6.70;4.13;;;;;;;9.25;61.53;101699.09;5115251;28;20039;-56
2023/04/20 09:57:55;;;;;;;5.45;3.85;;;;;;;9.33;61.87;101687.50;5116055;28;20027;-56
2023/04/20 10:00:21;;;;;;;5.32;3.60;;;;;;;9.34;62.42;101681.53;5114175;28;20024;-56
2023/04/20 10:02:47;;;;;;;6.15;4.78;;;;;;;9.36;62.80;101682.47;5115149;28;20035;-56
2023/04/20 10:05:12;;;;;;;5.93;3.97;;;;;;;9.56;63.99;101676.59;5115709;28;20466;-56
2023/04/20 10:07:37;;;;;;;6.80;4.25;;;;;;;9.33;62.93;101672.06;5115156;28;20075;-56
2023/04/20 10:10:14;;;;;;;6.00;4.40;;;;;;;9.10;63.20;101674.38;5115385;28;20020;-56
2023/04/20 10:12:54;;;;;;;6.50;4.15;;;;;;;9.06;64.02;101685.31;5115724;28;20036;-56
2023/04/20 10:15:23;;;;;;;6.63;4.40;;;;;;;8.96;62.89;101678.88;5115129;28;20027;-56
2023/04/20 10:17:48;;;;;;;8.05;4.18;;;;;;;9.22;63.57;101677.56;5114924;28;20032;-56
2023/04/20 10:20:26;;;;;;;6.72;4.22;;;;;;;9.36;63.87;101669.63;5115699;28;20159;-56
2023/04/20 10:22:53;;;;;;;7.13;4.20;;;;;;;9.41;66.31;101675.00;5115429;28;20097;-56
2023/04/20 10:25:22;;;;;;;7.60;3.92;;;;;;;9.51;63.74;101672.03;5114613;28;20115;-56
2023/04/20 10:27:58;;;;;;;9.30;4.80;;;;;;;9.53;62.26;101673.88;5115324;28;20536;-56
2023/04/20 10:30:26;;;;;;;6.75;4.28;;;;;;;9.63;61.33;101674.31;5114207;28;20028;-56
2023/04/20 10:33:11;;;;;;;8.35;4.50;;;;;;;9.72;64.76;101669.56;5115535;28;20073;-56
2023/04/20 10:35:55;;;;;;;7.45;4.60;;;;;;;9.86;63.65;101667.66;5115028;28;20030;-56
2023/04/20 10:38:34;;;;;;;6.25;4.80;;;;;;;9.84;63.99;101665.00;5114394;28;20034;-56
2023/04/20 10:41:17;;;;;;;7.13;4.68;;;;;;;10.02;62.27;101658.94;5115419;28;20027;-56
2023/04/20 10:43:43;;;;;;;7.75;4.57;;;;;;;10.03;62.00;101650.38;5115078;28;20090;-56
2023/04/20 10:46:21;;;;;;;8.60;4.68;;;;;;;10.12;61.07;101661.13;5114326;28;20493;-56
2023/04/20 10:49:00;;;;;;;6.43;4.32;;;;;;;10.57;59.58;101650.19;5115099;28;20028;-56
2023/04/20 10:51:25;;;;;;;6.43;4.30;;;;;;;10.94;58.70;101654.28;5113710;28;20023;-56
2023/04/20 10:54:04;;;;;;;8.20;4.82;;;;;;;10.72;57.79;101649.94;5114863;28;20016;-56
2023/04/20 10:56:40;;;;;;;6.55;4.53;;;;;;;10.43;58.76;101629.00;5114418;28;20035;-56
2023/04/20 10:59:10;;;;;;;6.45;4.85;;;;;;;11.30;57.18;101640.25;5114236;28;20038;-56
2023/04/20 11:01:36;;;;;;;7.72;4.70;;;;;;;11.32;55.92;101649.81;5114273;28;20020;-56
2023/04/20 11:04:01;;;;;;;7.57;5.00;;;;;;;11.31;55.91;101652.31;5114593;28;20096;-56
2023/04/20 11:06:27;;;;;;;6.47;4.43;;;;;;;11.41;55.34;101649.25;5113931;28;20059;-55
2023/04/20 11:08:53;;;;;;;8.00;4.72;;;;;;;11.82;53.93;101634.47;5114679;28;20026;-55
2023/04/20 11:11:24;;;;;;;6.88;4.07;;;;;;;11.40;54.85;101638.88;5113788;28;20028;-56
2023/04/20 11:13:50;;;;;;;6.97;4.50;;;;;;;10.93;55.79;101644.78;5113932;28;20049;-56
2023/04/20 11:16:17;;;;;;;6.28;4.65;;;;;;;11.04;56.23;101638.38;5114037;28;20035;-56
2023/04/20 11:18:53;;;;;;;8.13;4.57;;;;;;;11.02;57.19;101636.56;5114228;28;20098;-55
2023/04/20 11:21:19;;;;;;;7.03;4.75;;;;;;;11.75;55.43;101619.59;5113526;28;20019;-56
2023/04/20 11:23:45;;;;;;;9.43;4.90;;;;;;;11.60;52.89;101612.13;5114399;28;20052;-54
2023/04/20 11:26:11;;;;;;;7.65;5.30;;;;;;;11.67;53.47;101618.41;5114010;28;20067;-56
2023/04/20 11:28:36;;;;;;;7.22;4.32;;;;;;;11.23;53.04;101615.00;5113392;28;20431;-56